createdAt,value
2022-08-17T00:01:26.307Z,55.89
2022-08-17T00:03:54.434Z,55.80
2022-08-17T00:06:27.592Z,55.46
2022-08-17T00:09:00.716Z,55.82
2022-08-17T00:11:30.699Z,55.71
2022-08-17T00:14:05.146Z,55.87
2022-08-17T00:16:56.667Z,56.10
2022-08-17T00:19:24.640Z,56.64
2022-08-17T00:22:34.559Z,56.98
2022-08-17T00:24:39.829Z,57.18
2022-08-17T00:27:06.364Z,57.21
2022-08-17T00:29:32.893Z,57.72
2022-08-17T00:32:01.252Z,57.81
2022-08-17T00:34:47.881Z,57.95
2022-08-17T00:37:14.418Z,58.22
2022-08-17T00:39:41.348Z,58.17
2022-08-17T00:42:19.108Z,58.45
2022-08-17T00:44:46.090Z,58.52
2022-08-17T00:47:12.692Z,58.50
2022-08-17T00:49:39.514Z,58.83
2022-08-17T00:52:15.442Z,58.55
2022-08-17T00:54:44.782Z,58.29
2022-08-17T00:57:18.242Z,58.25
2022-08-17T00:59:56.058Z,58.21
2022-08-17T01:02:42.532Z,58.08
2022-08-17T01:05:17.166Z,58.45
2022-08-17T01:07:47.961Z,58.62
2022-08-17T01:11:00.423Z,58.96
2022-08-17T01:13:04.378Z,59.54
2022-08-17T01:15:35.388Z,59.56
2022-08-17T01:18:02.583Z,59.91
2022-08-17T01:20:29.626Z,59.50
2022-08-17T01:22:56.205Z,59.24
2022-08-17T01:25:22.886Z,59.61
2022-08-17T01:27:50.082Z,59.41
2022-08-17T01:30:56.741Z,59.07
2022-08-17T01:33:04.380Z,59.24
2022-08-17T01:35:30.983Z,58.96
2022-08-17T01:37:57.524Z,58.94
2022-08-17T01:40:46.480Z,58.99
2022-08-17T01:43:21.624Z,59.03
2022-08-17T01:46:03.369Z,59.75
2022-08-17T01:48:38.574Z,60.06
2022-08-17T01:51:07.226Z,60.17
2022-08-17T01:53:41.494Z,60.10
2022-08-17T01:56:11.174Z,60.29
2022-08-17T01:58:39.477Z,60.21
2022-08-17T02:01:07.223Z,60.65
2022-08-17T02:03:35.781Z,60.65
2022-08-17T02:06:03.415Z,60.73
2022-08-17T02:08:38.804Z,60.96
2022-08-17T02:11:11.552Z,60.78
2022-08-17T02:13:39.220Z,60.97
2022-08-17T02:16:06.263Z,61.12
2022-08-17T02:18:33.028Z,61.06
2022-08-17T02:20:59.970Z,60.91
2022-08-17T02:23:30.580Z,61.39
2022-08-17T02:25:59.618Z,61.14
2022-08-17T02:28:26.660Z,61.21
2022-08-17T02:31:01.640Z,61.09
2022-08-17T02:33:41.784Z,61.49
2022-08-17T02:36:11.427Z,61.57
2022-08-17T02:38:39.449Z,61.57
2022-08-17T02:41:06.170Z,61.84
2022-08-17T02:43:32.951Z,61.83
2022-08-17T02:45:59.555Z,61.85
2022-08-17T02:48:31.157Z,61.78
2022-08-17T02:50:58.857Z,61.88
2022-08-17T02:53:25.627Z,61.99
2022-08-17T02:55:53.196Z,62.09
2022-08-17T02:58:34.549Z,62.08
2022-08-17T03:01:03.462Z,62.28
2022-08-17T03:03:30.116Z,62.22
2022-08-17T03:05:56.896Z,62.40
2022-08-17T03:08:23.862Z,62.46
2022-08-17T03:10:50.601Z,62.32
2022-08-17T03:13:17.597Z,62.26
2022-08-17T03:15:45.460Z,62.98
2022-08-17T03:18:24.088Z,62.31
2022-08-17T03:20:53.235Z,62.68
2022-08-17T03:23:24.038Z,62.78
2022-08-17T03:25:52.962Z,62.83
2022-08-17T03:28:20.869Z,62.73
2022-08-17T03:30:47.385Z,62.98
2022-08-17T03:33:14.773Z,63.31
2022-08-17T03:35:42.076Z,63.79
2022-08-17T03:38:10.417Z,63.61
2022-08-17T03:40:57.891Z,63.66
2022-08-17T03:43:24.795Z,63.75
2022-08-17T03:46:24.006Z,64.24
2022-08-17T03:49:17.084Z,64.11
2022-08-17T03:52:02.020Z,64.31
2022-08-17T03:54:47.219Z,63.97
2022-08-17T03:57:13.991Z,63.93
2022-08-17T03:59:41.145Z,63.84
2022-08-17T04:02:15.939Z,63.51
2022-08-17T04:04:42.743Z,63.37
2022-08-17T04:07:09.485Z,63.67
2022-08-17T04:09:36.659Z,63.37
2022-08-17T04:12:05.186Z,63.87
2022-08-17T04:14:36.483Z,63.65
2022-08-17T04:17:19.796Z,63.68
2022-08-17T04:19:46.710Z,63.65
2022-08-17T04:22:30.205Z,63.41
2022-08-17T04:25:07.515Z,63.60
2022-08-17T04:27:34.284Z,63.77
2022-08-17T04:30:01.645Z,63.80
2022-08-17T04:33:05.050Z,63.87
2022-08-17T04:35:21.734Z,63.96
2022-08-17T04:37:48.574Z,64.03
2022-08-17T04:40:33.866Z,64.05
2022-08-17T04:43:02.783Z,63.76
2022-08-17T04:45:31.986Z,63.48
2022-08-17T04:48:01.092Z,63.65
2022-08-17T04:50:27.834Z,63.47
2022-08-17T04:52:54.606Z,63.18
2022-08-17T04:55:21.586Z,63.07
2022-08-17T04:57:48.236Z,62.88
2022-08-17T05:00:15.170Z,62.55
2022-08-17T05:02:50.615Z,63.04
2022-08-17T05:05:30.642Z,63.09
2022-08-17T05:08:00.012Z,63.17
2022-08-17T05:10:29.364Z,63.36
2022-08-17T05:13:01.105Z,63.36
2022-08-17T05:15:29.333Z,63.58
2022-08-17T05:17:59.910Z,63.13
2022-08-17T05:20:27.022Z,63.30
2022-08-17T05:23:01.076Z,63.52
2022-08-17T05:25:32.799Z,62.96
2022-08-17T05:28:04.878Z,62.88
2022-08-17T05:30:33.982Z,62.71
2022-08-17T05:33:02.379Z,62.11
2022-08-17T05:35:32.049Z,61.45
2022-08-17T05:37:58.996Z,60.89
2022-08-17T05:40:25.985Z,60.36
2022-08-17T05:43:04.658Z,60.18
2022-08-17T05:45:54.668Z,59.31
2022-08-17T05:48:19.547Z,59.01
2022-08-17T05:51:01.139Z,59.21
2022-08-17T05:53:50.884Z,59.43
2022-08-17T05:56:52.954Z,58.77
2022-08-17T05:59:39.484Z,59.04
2022-08-17T06:02:42.031Z,58.54
2022-08-17T06:05:18.239Z,58.32
2022-08-17T06:07:49.801Z,58.12
2022-08-17T06:10:32.427Z,58.04
2022-08-17T06:13:04.121Z,58.51
2022-08-17T06:15:48.617Z,58.03
2022-08-17T06:18:19.219Z,58.02
2022-08-17T06:20:51.837Z,57.56
2022-08-17T06:23:29.495Z,57.42
2022-08-17T06:26:03.748Z,56.94
2022-08-17T06:28:47.053Z,56.60
2022-08-17T06:31:22.602Z,56.38
2022-08-17T06:33:50.303Z,56.07
2022-08-17T06:37:09.358Z,55.12
2022-08-17T06:39:51.074Z,55.18
2022-08-17T06:42:55.009Z,55.79
2022-08-17T06:45:42.006Z,54.62
2022-08-17T06:48:36.250Z,54.81
2022-08-17T06:51:13.384Z,54.73
2022-08-17T06:53:52.542Z,55.02
2022-08-17T06:56:53.207Z,54.48
2022-08-17T06:59:25.093Z,53.21
2022-08-17T07:01:53.092Z,53.61
2022-08-17T07:04:24.295Z,53.16
2022-08-17T07:06:59.182Z,53.16
2022-08-17T07:09:31.315Z,53.63
2022-08-17T07:12:20.524Z,55.13
2022-08-17T07:14:59.633Z,54.42
2022-08-17T07:17:46.894Z,55.04
2022-08-17T07:20:22.536Z,55.07
2022-08-17T07:22:59.586Z,55.06
2022-08-17T07:25:27.575Z,54.97
2022-08-17T07:27:59.817Z,54.76
2022-08-17T07:31:00.787Z,54.16
2022-08-17T07:33:33.590Z,53.87
2022-08-17T07:36:00.307Z,53.74
2022-08-17T07:38:33.283Z,54.03
2022-08-17T07:41:06.496Z,53.46
2022-08-17T07:43:41.922Z,53.46
2022-08-17T07:46:30.238Z,52.40
2022-08-17T07:49:25.097Z,51.42
2022-08-17T07:51:51.640Z,51.48
2022-08-17T07:54:37.375Z,50.87
2022-08-17T07:57:13.216Z,51.13
2022-08-17T08:00:03.845Z,50.40
2022-08-17T08:02:34.203Z,49.83
2022-08-17T08:05:03.323Z,49.85
2022-08-17T08:07:50.423Z,50.04
2022-08-17T08:10:38.956Z,50.15
2022-08-17T08:13:20.681Z,50.29
2022-08-17T08:15:53.644Z,50.37
2022-08-17T08:18:53.538Z,50.30
2022-08-17T08:21:31.619Z,51.24
2022-08-17T08:24:36.776Z,51.92
2022-08-17T08:27:11.569Z,53.20
2022-08-17T08:29:44.236Z,53.73
2022-08-17T08:32:45.350Z,54.00
2022-08-17T08:35:44.400Z,54.61
2022-08-17T08:38:23.747Z,53.92
2022-08-17T08:41:12.822Z,53.30
2022-08-17T08:43:50.871Z,54.94
2022-08-17T08:46:55.233Z,56.33
2022-08-17T08:49:59.536Z,55.13
2022-08-17T08:52:35.643Z,57.61
2022-08-17T08:55:35.614Z,58.35
2022-08-17T08:58:31.759Z,60.22
2022-08-17T09:01:08.905Z,62.49
2022-08-17T09:04:25.600Z,62.23
2022-08-17T09:07:15.960Z,62.96
2022-08-17T09:10:13.624Z,64.68
2022-08-17T09:13:10.295Z,64.71
2022-08-17T09:15:57.331Z,64.01
2022-08-17T09:18:59.842Z,63.30
2022-08-17T09:21:48.198Z,62.85
2022-08-17T09:24:44.242Z,62.72
2022-08-17T09:27:16.443Z,62.64
2022-08-17T09:29:48.761Z,62.80
2022-08-17T09:32:22.372Z,62.18
2022-08-17T09:34:57.251Z,62.31
2022-08-17T09:37:35.707Z,61.76
2022-08-17T09:40:24.554Z,62.01
2022-08-17T09:43:03.781Z,62.57
2022-08-17T09:45:50.753Z,61.85
2022-08-17T09:48:28.827Z,61.71
2022-08-17T09:51:15.786Z,57.24
2022-08-17T09:53:44.788Z,55.05
2022-08-17T09:56:56.528Z,54.13
2022-08-17T09:59:49.200Z,55.13
2022-08-17T10:02:50.569Z,54.17
2022-08-17T10:05:45.447Z,54.21
2022-08-17T10:08:32.633Z,55.60
2022-08-17T10:11:11.963Z,55.84
2022-08-17T10:13:59.760Z,53.63
2022-08-17T10:16:45.479Z,54.34
2022-08-17T10:19:44.125Z,54.07
2022-08-17T10:23:06.233Z,52.53
2022-08-17T10:25:55.882Z,50.56
2022-08-17T10:28:29.807Z,51.01
2022-08-17T10:33:59.140Z,50.87
2022-08-17T10:37:05.808Z,51.47
2022-08-17T10:39:51.892Z,50.46
2022-08-17T10:42:32.427Z,49.91
2022-08-17T10:45:06.708Z,51.54
2022-08-17T10:48:05.287Z,51.36
2022-08-17T10:51:08.746Z,51.57
2022-08-17T10:53:35.247Z,51.79
2022-08-17T10:56:14.149Z,51.23
2022-08-17T10:58:58.809Z,50.99
2022-08-17T11:01:34.342Z,52.55
2022-08-17T11:04:30.217Z,52.96
2022-08-17T11:07:25.710Z,52.72
2022-08-17T11:10:24.357Z,52.96
2022-08-17T11:13:28.154Z,53.59
2022-08-17T11:16:28.584Z,53.57
2022-08-17T11:19:17.034Z,53.13
2022-08-17T11:21:55.745Z,52.63
2022-08-17T11:24:35.219Z,52.81
2022-08-17T11:27:22.349Z,53.21
2022-08-17T11:32:32.229Z,53.22
2022-08-17T11:35:07.568Z,51.73
2022-08-17T11:38:14.073Z,51.49
2022-08-17T11:41:01.464Z,50.40
2022-08-17T11:43:37.388Z,49.09
2022-08-17T11:46:15.137Z,49.05
2022-08-17T11:49:16.744Z,48.47
2022-08-17T11:52:01.790Z,47.05
2022-08-17T11:54:33.864Z,47.79
2022-08-17T11:57:26.030Z,47.32
2022-08-17T12:00:09.208Z,47.38
2022-08-17T12:02:48.133Z,45.60
2022-08-17T12:05:17.947Z,43.66
2022-08-17T12:07:53.875Z,44.71
2022-08-17T12:10:31.958Z,44.16
2022-08-17T12:13:02.296Z,44.18
2022-08-17T12:15:40.663Z,43.65
2022-08-17T12:18:07.273Z,43.16
2022-08-17T12:20:45.105Z,43.37
2022-08-17T12:23:41.900Z,41.58
2022-08-17T12:26:17.358Z,40.83
2022-08-17T12:28:46.745Z,40.35
2022-08-17T12:31:20.238Z,40.58
2022-08-17T12:33:48.065Z,39.87
2022-08-17T12:36:17.197Z,38.95
2022-08-17T12:39:12.889Z,39.12
2022-08-17T12:41:47.134Z,39.67
2022-08-17T12:44:19.980Z,39.50
2022-08-17T12:46:58.982Z,39.76
2022-08-17T12:49:30.691Z,40.44
2022-08-17T12:52:04.915Z,39.70
2022-08-17T12:54:51.010Z,38.94
2022-08-17T12:57:22.982Z,38.92
2022-08-17T12:59:54.058Z,38.83
2022-08-17T13:02:28.803Z,38.97
2022-08-17T13:04:58.910Z,39.17
2022-08-17T13:07:32.294Z,39.12
2022-08-17T13:09:58.923Z,38.99
2022-08-17T13:12:30.946Z,38.92
2022-08-17T13:14:59.437Z,38.47
2022-08-17T13:17:36.069Z,38.06
2022-08-17T13:20:13.353Z,38.19
2022-08-17T13:22:40.229Z,38.25
2022-08-17T13:25:15.951Z,38.92
2022-08-17T13:27:43.373Z,38.50
2022-08-17T13:30:12.343Z,38.07
2022-08-17T13:32:46.451Z,38.24
2022-08-17T13:35:39.305Z,37.36
2022-08-17T13:38:09.500Z,37.65
2022-08-17T13:40:49.204Z,37.65
2022-08-17T13:43:39.525Z,38.61
2022-08-17T13:46:12.373Z,38.57
2022-08-17T13:48:40.187Z,38.99
2022-08-17T13:51:14.228Z,39.12
2022-08-17T13:53:40.762Z,39.38
2022-08-17T13:56:37.787Z,39.08
2022-08-17T13:59:11.532Z,38.89
2022-08-17T14:01:47.483Z,39.28
2022-08-17T14:04:28.018Z,38.27
2022-08-17T14:07:11.563Z,38.44
2022-08-17T14:09:43.304Z,37.25
2022-08-17T14:12:12.630Z,36.73
2022-08-17T14:14:39.685Z,36.74
2022-08-17T14:17:07.858Z,36.80
2022-08-17T14:19:34.954Z,35.85
2022-08-17T14:22:02.150Z,36.04
2022-08-17T14:24:35.280Z,36.42
2022-08-17T14:27:03.653Z,36.92
2022-08-17T14:29:32.279Z,37.50
2022-08-17T14:32:05.018Z,35.92
2022-08-17T14:34:31.575Z,36.23
2022-08-17T14:36:58.577Z,36.28
2022-08-17T14:39:25.290Z,35.77
2022-08-17T14:41:53.005Z,36.49
2022-08-17T14:44:19.608Z,36.05
2022-08-17T14:46:46.168Z,35.41
2022-08-17T14:49:13.363Z,35.67
2022-08-17T14:51:43.676Z,35.39
2022-08-17T14:54:33.461Z,35.97
2022-08-17T14:57:02.887Z,36.20
2022-08-17T14:59:47.296Z,35.67
2022-08-17T15:02:17.345Z,36.57
2022-08-17T15:04:45.916Z,35.22
2022-08-17T15:07:12.462Z,33.87
2022-08-17T15:09:39.188Z,34.36
2022-08-17T15:12:09.071Z,34.30
2022-08-17T15:14:36.229Z,34.05
2022-08-17T15:17:03.726Z,33.98
2022-08-17T15:19:30.265Z,33.43
2022-08-17T15:21:56.854Z,33.33
2022-08-17T15:24:23.604Z,32.87
2022-08-17T15:26:51.387Z,32.22
2022-08-17T15:29:17.958Z,32.42
2022-08-17T15:31:44.953Z,33.16
2022-08-17T15:34:11.935Z,32.01
2022-08-17T15:36:38.924Z,32.77
2022-08-17T15:39:15.610Z,32.81
2022-08-17T15:41:47.290Z,32.96
2022-08-17T15:44:32.630Z,32.70
2022-08-17T15:47:01.996Z,32.19
2022-08-17T15:49:28.781Z,32.37
2022-08-17T15:51:55.653Z,32.35
2022-08-17T15:54:23.379Z,32.86
2022-08-17T15:56:50.623Z,32.89
2022-08-17T15:59:17.176Z,32.87
2022-08-17T16:03:01.655Z,32.96
2022-08-17T16:04:31.895Z,32.61
2022-08-17T16:06:59.931Z,33.56
2022-08-17T16:09:26.996Z,33.50
2022-08-17T16:11:56.291Z,34.00
2022-08-17T16:14:24.555Z,33.76
2022-08-17T16:17:00.681Z,34.28
2022-08-17T16:19:27.307Z,34.10
2022-08-17T16:21:53.840Z,33.71
2022-08-17T16:24:20.601Z,33.77
2022-08-17T16:26:47.157Z,32.89
2022-08-17T16:29:14.105Z,33.22
2022-08-17T16:31:41.945Z,33.13
2022-08-17T16:34:18.000Z,33.18
2022-08-17T16:36:55.519Z,32.61
2022-08-17T16:39:25.493Z,32.83
2022-08-17T16:41:52.115Z,32.17
2022-08-17T16:44:20.874Z,32.66
2022-08-17T16:46:50.267Z,32.87
2022-08-17T16:49:35.773Z,33.15
2022-08-17T16:52:04.035Z,32.77
2022-08-17T16:54:30.683Z,33.18
2022-08-17T16:56:57.378Z,33.79
2022-08-17T16:59:30.978Z,32.68
2022-08-17T17:02:04.871Z,32.95
2022-08-17T17:04:35.125Z,32.67
2022-08-17T17:07:16.986Z,33.00
2022-08-17T17:09:47.532Z,32.95
2022-08-17T17:12:18.518Z,32.81
2022-08-17T17:14:48.149Z,33.62
2022-08-17T17:17:29.578Z,33.80
2022-08-17T17:20:09.913Z,33.46
2022-08-17T17:22:48.126Z,33.81
2022-08-17T17:25:33.270Z,34.26
2022-08-17T17:28:15.250Z,34.00
2022-08-17T17:31:05.717Z,33.99
2022-08-17T17:33:40.485Z,34.03
2022-08-17T17:36:33.735Z,35.05
2022-08-17T17:39:06.363Z,35.38
2022-08-17T17:41:42.014Z,35.47
2022-08-17T17:44:15.324Z,35.79
2022-08-17T17:46:52.092Z,35.88
2022-08-17T17:49:20.205Z,35.79
2022-08-17T17:52:23.201Z,35.60
2022-08-17T17:55:31.529Z,36.14
2022-08-17T17:58:17.949Z,36.04
2022-08-17T18:00:51.363Z,36.33
2022-08-17T18:03:31.232Z,36.77
2022-08-17T18:06:03.578Z,36.59
2022-08-17T18:08:54.793Z,36.85
2022-08-17T18:11:35.398Z,36.99
2022-08-17T18:14:33.257Z,37.13
2022-08-17T18:17:00.697Z,37.16
2022-08-17T18:19:30.163Z,37.69
2022-08-17T18:22:06.677Z,37.55
2022-08-17T18:24:37.997Z,38.27
2022-08-17T18:27:23.727Z,38.23
2022-08-17T18:29:53.584Z,38.70
2022-08-17T18:32:31.855Z,38.65
2022-08-17T18:35:18.367Z,38.86
2022-08-17T18:37:47.534Z,39.25
2022-08-17T18:40:17.240Z,39.32
2022-08-17T18:43:04.292Z,39.04
2022-08-17T18:45:41.180Z,39.22
2022-08-17T18:48:20.463Z,39.37
2022-08-17T18:50:47.245Z,39.63
2022-08-17T18:53:21.023Z,39.69
2022-08-17T18:56:13.703Z,39.92
2022-08-17T18:58:40.382Z,40.07
2022-08-17T19:01:18.782Z,40.22
2022-08-17T19:03:46.094Z,40.78
2022-08-17T19:06:28.363Z,40.93
2022-08-17T19:08:55.027Z,41.00
2022-08-17T19:11:30.251Z,40.88
2022-08-17T19:14:16.772Z,40.91
2022-08-17T19:16:55.244Z,41.11
2022-08-17T19:19:38.102Z,41.56
2022-08-17T19:22:28.905Z,41.41
2022-08-17T19:25:05.989Z,41.42
2022-08-17T19:27:57.307Z,41.56
2022-08-17T19:30:24.681Z,41.84
2022-08-17T19:32:51.504Z,41.79
2022-08-17T19:35:20.313Z,42.37
2022-08-17T19:38:18.365Z,42.46
2022-08-17T19:41:05.129Z,42.51
2022-08-17T19:43:48.084Z,42.27
2022-08-17T19:46:49.886Z,42.46
2022-08-17T19:49:33.273Z,42.79
2022-08-17T19:52:38.860Z,42.80
2022-08-17T19:55:18.307Z,42.96
2022-08-17T19:58:19.177Z,42.93
2022-08-17T20:00:50.671Z,43.64
2022-08-17T20:03:41.663Z,44.26
2022-08-17T20:06:13.731Z,44.72
2022-08-17T20:09:12.936Z,44.63
2022-08-17T20:11:54.794Z,44.55
2022-08-17T20:14:53.819Z,44.88
2022-08-17T20:17:28.129Z,45.31
2022-08-17T20:20:27.853Z,45.44
2022-08-17T20:23:07.716Z,45.89
2022-08-17T20:26:02.830Z,45.65
2022-08-17T20:28:35.007Z,45.82
2022-08-17T20:31:05.957Z,46.21
2022-08-17T20:33:38.758Z,46.41
2022-08-17T20:36:11.510Z,46.49
2022-08-17T20:38:49.489Z,46.56
2022-08-17T20:41:34.357Z,46.57
2022-08-17T20:44:04.776Z,47.08
2022-08-17T20:46:40.520Z,47.51
2022-08-17T20:49:27.115Z,47.76
2022-08-17T20:52:02.550Z,47.99
2022-08-17T20:54:47.769Z,48.42
2022-08-17T20:57:32.515Z,48.51
2022-08-17T21:00:06.335Z,48.60
2022-08-17T21:02:33.128Z,49.12
2022-08-17T21:05:05.501Z,49.48
2022-08-17T21:07:53.934Z,49.66
2022-08-17T21:10:23.654Z,50.08
2022-08-17T21:13:08.468Z,50.22
2022-08-17T21:16:12.864Z,50.19
2022-08-17T21:19:01.062Z,50.38
2022-08-17T21:21:41.566Z,50.69
2022-08-17T21:24:34.917Z,50.61
2022-08-17T21:27:23.462Z,50.82
2022-08-17T21:30:14.836Z,51.08
2022-08-17T21:32:43.495Z,51.23
2022-08-17T21:35:19.333Z,51.45
2022-08-17T21:37:48.292Z,51.51
2022-08-17T21:40:18.327Z,51.67
2022-08-17T21:42:47.707Z,51.63
2022-08-17T21:45:29.308Z,51.62
2022-08-17T21:48:09.081Z,51.86
2022-08-17T21:50:36.057Z,52.22
2022-08-17T21:53:04.065Z,52.17
2022-08-17T21:55:34.051Z,52.09
2022-08-17T21:58:13.800Z,52.37
2022-08-17T22:00:44.411Z,52.25
2022-08-17T22:03:23.869Z,52.19
2022-08-17T22:05:51.559Z,52.36
2022-08-17T22:08:22.367Z,52.37
2022-08-17T22:10:51.189Z,52.75
2022-08-17T22:13:17.844Z,53.04
2022-08-17T22:16:29.083Z,53.24
2022-08-17T22:18:54.046Z,53.46
2022-08-17T22:21:22.568Z,53.29
2022-08-17T22:24:06.378Z,53.21
2022-08-17T22:26:59.709Z,53.35
2022-08-17T22:29:47.075Z,53.27
2022-08-17T22:32:34.441Z,53.59
2022-08-17T22:35:34.525Z,54.02
2022-08-17T22:38:19.125Z,54.63
2022-08-17T22:40:49.731Z,54.93
2022-08-17T22:43:21.325Z,55.28
2022-08-17T22:45:55.416Z,55.38
2022-08-17T22:48:28.346Z,55.42
2022-08-17T22:51:12.368Z,55.31
2022-08-17T22:54:05.247Z,55.45
2022-08-17T22:56:50.905Z,55.34
2022-08-17T22:59:43.797Z,55.54
2022-08-17T23:02:21.167Z,55.33
2022-08-17T23:04:51.908Z,56.00
2022-08-17T23:07:23.006Z,56.15
2022-08-17T23:09:51.570Z,56.23
2022-08-17T23:12:24.472Z,56.45
2022-08-17T23:14:57.363Z,56.88
2022-08-17T23:17:24.467Z,57.20
2022-08-17T23:19:51.051Z,57.16
2022-08-17T23:22:17.623Z,57.42
2022-08-17T23:24:48.894Z,57.63
2022-08-17T23:27:15.637Z,57.68
2022-08-17T23:29:42.288Z,58.00
2022-08-17T23:32:15.074Z,58.23
2022-08-17T23:34:43.824Z,58.24
2022-08-17T23:37:11.883Z,58.55
2022-08-17T23:39:39.394Z,58.70
2022-08-17T23:42:10.735Z,58.84
2022-08-17T23:44:39.886Z,59.04
2022-08-17T23:47:07.732Z,59.13
2022-08-17T23:49:36.116Z,59.15
2022-08-17T23:52:06.583Z,58.86
2022-08-17T23:54:41.574Z,59.05
2022-08-17T23:57:09.206Z,59.02
2022-08-17T23:59:37.148Z,59.07
